Time;durP1;ratioP1;P1;durP2;ratioP2;P2;SDS_P1;SDS_P2;PMS_P1;PMS_P2;Temp;Humidity;BMP_temperature;BMP_pressure;BME280_temperature;BME280_humidity;BME280_pressure;Samples;Min_cycle;Max_cycle;Signal;HPM_P1;HPM_P2
2023/01/10 00:01:23;;;;;;;;;2.00;1.00;;;;;7.97;63.03;101079.13;5076898;27;45604;-52
2023/01/10 00:03:48;;;;;;;;;2.50;2.00;;;;;7.98;62.91;101070.41;5074502;28;45475;-56
2023/01/10 00:06:14;;;;;;;;;2.50;2.50;;;;;7.94;62.82;101073.94;5075715;27;45522;-58
2023/01/10 00:08:39;;;;;;;;;3.25;2.00;;;;;7.93;62.28;101077.47;5075487;28;45530;-56
2023/01/10 00:13:22;;;;;;;;;3.00;2.00;;;;;7.86;62.65;101067.97;5075374;28;45767;-59
2023/01/10 00:13:54;;;;;;;;;3.00;2.00;;;;;7.86;63.03;101074.06;5076105;28;45592;-53
2023/01/10 00:16:20;;;;;;;;;2.00;2.00;;;;;7.84;62.66;101069.75;5076632;27;46022;-54
2023/01/10 00:18:45;;;;;;;;;1.00;1.00;;;;;7.75;63.41;101074.25;5076687;27;46057;-54
2023/01/10 00:21:11;;;;;;;;;7.50;2.00;;;;;7.83;63.02;101079.38;5075749;28;47981;-49
2023/01/10 00:23:37;;;;;;;;;4.00;1.00;;;;;7.89;62.85;101089.72;5074695;27;45427;-50
2023/01/10 00:26:02;;;;;;;;;4.50;2.00;;;;;7.87;63.02;101088.91;5076460;27;45427;-56
2023/01/10 00:28:27;;;;;;;;;4.67;2.00;;;;;7.85;62.60;101092.44;5076289;27;45481;-56
2023/01/10 00:30:56;;;;;;;;;1.75;1.00;;;;;7.80;63.11;101103.00;5076763;27;45525;-55
2023/01/10 00:33:21;;;;;;;;;3.00;1.25;;;;;7.79;62.66;101105.63;5076498;27;45610;-54
2023/01/10 00:35:47;;;;;;;;;1.00;1.00;;;;;7.82;62.76;101111.69;5076184;28;45460;-53
2023/01/10 00:38:13;;;;;;;;;4.00;3.00;;;;;7.90;63.13;101117.66;5076508;28;45410;-57
2023/01/10 00:40:39;;;;;;;;;2.75;2.75;;;;;7.91;62.24;101121.16;5076257;27;45470;-52
2023/01/10 00:45:48;;;;;;;;;2.00;2.00;;;;;7.80;62.70;101116.09;5076035;28;45556;-57
2023/01/10 00:48:15;;;;;;;;;2.00;2.00;;;;;7.87;62.81;101125.56;5076307;27;45448;-57
2023/01/10 00:50:40;;;;;;;;;1.00;1.00;;;;;7.90;62.94;101122.91;5075504;28;45513;-57
2023/01/10 00:53:06;;;;;;;;;1.33;1.33;;;;;7.93;62.52;101120.25;5060484;28;45385;-55
2023/01/10 00:55:33;;;;;;;;;2.00;2.00;;;;;7.91;62.39;101131.63;5076332;27;46237;-52
2023/01/10 00:57:59;;;;;;;;;3.25;3.00;;;;;7.87;63.02;101128.19;5075884;27;45420;-55
2023/01/10 01:00:24;;;;;;;;;4.50;3.00;;;;;7.84;62.70;101127.38;5076185;27;45432;-59
2023/01/10 01:02:50;;;;;;;;;2.33;1.00;;;;;7.80;62.51;101129.16;5075933;27;45438;-51
2023/01/10 01:05:16;;;;;;;;;2.50;2.50;;;;;7.86;63.06;101141.31;5075963;27;45441;-56
2023/01/10 01:07:41;;;;;;;;;4.25;3.00;;;;;7.89;62.90;101136.88;5075682;28;45387;-55
2023/01/10 01:10:25;;;;;;;;;2.00;2.00;;;;;7.88;62.27;101137.78;5075506;28;48280;-56
2023/01/10 01:12:57;;;;;;;;;3.67;2.00;;;;;7.92;62.83;101138.56;5075878;27;45482;-54
2023/01/10 01:15:23;;;;;;;;;3.00;3.00;;;;;7.91;62.47;101144.72;5074841;28;46023;-59
2023/01/10 01:17:48;;;;;;;;;4.50;3.00;;;;;7.87;63.04;101141.28;5075875;27;45601;-55
2023/01/10 01:20:14;;;;;;;;;4.75;1.50;;;;;7.91;62.94;101152.56;5073930;27;45522;-57
2023/01/10 01:22:40;;;;;;;;;5.00;2.00;;;;;7.92;62.36;101163.00;5073979;28;45440;-54
2023/01/10 01:25:06;;;;;;;;;1.33;1.33;;;;;7.96;62.76;101156.84;5077170;27;45516;-59
2023/01/10 01:27:33;;;;;;;;;2.67;1.67;;;;;7.88;62.27;101163.09;5079344;27;45311;-56
2023/01/10 01:29:59;;;;;;;;;4.00;2.00;;;;;7.85;62.64;101163.16;5079312;27;45380;-53
2023/01/10 01:32:24;;;;;;;;;2.75;2.00;;;;;7.85;62.84;101176.25;5079303;28;45525;-55
2023/01/10 01:34:50;;;;;;;;;1.75;1.75;;;;;7.85;63.32;101186.72;5078640;27;45397;-57
2023/01/10 01:37:18;;;;;;;;;7.50;2.75;;;;;7.88;62.96;101179.69;5078964;27;45451;-56
2023/01/10 01:39:45;;;;;;;;;3.67;2.00;;;;;7.85;62.76;101165.78;5079454;27;45468;-56
2023/01/10 01:42:19;;;;;;;;;3.33;3.33;;;;;7.88;62.79;101171.81;5079165;27;45501;-54
2023/01/10 01:44:46;;;;;;;;;2.25;1.50;;;;;7.88;63.03;101184.06;5078814;27;45453;-54
2023/01/10 01:47:32;;;;;;;;;4.00;4.00;;;;;7.88;62.79;101186.66;5078909;27;45381;-55
2023/01/10 01:49:57;;;;;;;;;2.00;2.00;;;;;7.85;62.72;101186.72;5077169;28;45396;-55
2023/01/10 01:52:29;;;;;;;;;1.50;1.50;;;;;7.89;63.36;101180.53;5065668;27;45335;-54
2023/01/10 01:54:58;;;;;;;;;5.50;3.00;;;;;7.88;63.22;101173.56;5078807;27;46436;-58
2023/01/10 01:57:26;;;;;;;;;1.00;1.00;;;;;7.84;63.26;101162.25;5078967;27;45373;-56
2023/01/10 01:59:54;;;;;;;;;2.00;2.00;;;;;7.85;63.32;101165.78;5078841;27;45583;-54
2023/01/10 02:02:27;;;;;;;;;2.75;2.00;;;;;7.89;63.54;101176.16;5078549;27;45567;-57
2023/01/10 02:04:58;;;;;;;;;4.00;1.00;;;;;7.95;63.50;101190.91;5077989;27;45509;-54
2023/01/10 02:07:27;;;;;;;;;3.67;1.00;;;;;7.95;63.63;101197.03;5078847;27;45394;-59
2023/01/10 02:10:00;;;;;;;;;6.00;3.00;;;;;7.96;62.74;101198.75;5078622;27;45491;-55
2023/01/10 02:12:29;;;;;;;;;7.00;3.33;;;;;7.99;63.06;101202.22;5079004;27;45396;-55
2023/01/10 02:14:55;;;;;;;;;2.33;1.00;;;;;7.99;63.30;101204.84;5078345;27;45509;-54
2023/01/10 02:17:20;;;;;;;;;5.00;3.00;;;;;7.96;63.20;101213.63;5078502;27;45520;-56
2023/01/10 02:19:53;;;;;;;;;2.00;1.00;;;;;7.89;63.23;101204.97;5077479;27;45597;-56
2023/01/10 02:22:38;;;;;;;;;6.00;6.00;;;;;7.99;62.83;101212.69;5077276;27;45551;-53
2023/01/10 02:25:22;;;;;;;;;3.67;2.33;;;;;7.97;63.07;101216.19;5069301;27;45502;-54
2023/01/10 02:28:10;;;;;;;;;2.33;1.00;;;;;7.91;63.65;101225.91;5078366;27;45425;-58
2023/01/10 02:31:10;;;;;;;;;2.00;2.00;;;;;7.85;63.97;101226.88;5078377;27;45418;-55
2023/01/10 02:33:45;;;;;;;;;1.00;1.00;;;;;7.91;63.77;101224.16;5049087;28;45468;-56
2023/01/10 02:36:48;;;;;;;;;4.25;2.00;;;;;7.96;63.18;101232.81;5077059;27;45417;-55
2023/01/10 02:39:25;;;;;;;;;3.25;3.25;;;;;7.98;63.85;101219.69;5069909;27;45443;-55
2023/01/10 02:42:03;;;;;;;;;3.50;3.00;;;;;8.02;63.50;101224.00;5076236;27;45472;-52
2023/01/10 02:44:53;;;;;;;;;1.00;1.00;;;;;8.06;63.41;101228.31;5078268;27;45480;-56
2023/01/10 02:47:19;;;;;;;;;2.00;2.00;;;;;8.07;63.69;101222.16;5077819;28;45452;-58
2023/01/10 02:49:50;;;;;;;;;2.00;2.00;;;;;8.09;63.20;101240.50;5078027;27;45361;-59
2023/01/10 02:52:24;;;;;;;;;2.25;1.00;;;;;8.10;63.02;101243.06;5078047;27;45445;-54
2023/01/10 02:54:57;;;;;;;;;4.00;2.33;;;;;8.08;63.30;101251.84;5077250;27;45501;-57
2023/01/10 02:58:03;;;;;;;;;3.00;1.75;;;;;8.07;63.46;101263.22;5077767;27;46350;-57
2023/01/10 03:01:02;;;;;;;;;3.00;1.25;;;;;8.03;63.17;101258.91;5062098;28;45532;-56
2023/01/10 03:03:56;;;;;;;;;3.00;3.00;;;;;8.05;63.11;101265.00;5068205;28;45351;-57
2023/01/10 03:06:33;;;;;;;;;3.75;2.50;;;;;8.00;63.74;101249.34;5075479;28;45534;-50
2023/01/10 03:09:07;;;;;;;;;4.00;1.75;;;;;8.03;63.68;101246.66;5077843;27;46370;-58
2023/01/10 03:11:38;;;;;;;;;3.00;2.00;;;;;8.01;63.68;101245.00;5075937;27;46196;-55
2023/01/10 03:14:09;;;;;;;;;1.00;1.00;;;;;8.00;63.12;101240.63;5077725;27;45431;-55
2023/01/10 03:16:39;;;;;;;;;7.50;2.50;;;;;7.91;63.52;101233.75;5077867;27;45316;-54
2023/01/10 03:19:22;;;;;;;;;2.25;1.25;;;;;7.99;63.08;101241.53;5077528;27;45417;-58
2023/01/10 03:21:53;;;;;;;;;1.75;1.50;;;;;7.99;63.33;101225.81;5077722;27;45445;-53
2023/01/10 03:24:48;;;;;;;;;2.50;2.50;;;;;7.97;63.90;101239.75;5077375;27;45554;-55
2023/01/10 03:27:24;;;;;;;;;2.00;2.00;;;;;7.96;63.75;101245.91;5076912;28;45469;-53
2023/01/10 03:30:06;;;;;;;;;1.33;1.33;;;;;7.92;63.96;101241.56;5077345;27;45464;-52
2023/01/10 03:32:33;;;;;;;;;2.75;1.25;;;;;7.96;63.99;101253.75;5077023;27;45434;-57
2023/01/10 03:35:00;;;;;;;;;2.50;2.25;;;;;7.97;63.31;101254.63;5062928;27;45359;-59
2023/01/10 03:37:35;;;;;;;;;3.00;2.75;;;;;7.97;64.09;101268.56;5077343;27;45388;-58
2023/01/10 03:40:27;;;;;;;;;4.25;3.25;;;;;8.00;63.65;101258.94;5077056;27;45504;-55
2023/01/10 03:46:07;;;;;;;;;1.00;1.00;;;;;7.93;64.12;101264.28;5077493;28;45485;-53
2023/01/10 03:48:38;;;;;;;;;2.50;2.50;;;;;7.91;63.99;101260.81;5076326;28;45430;-59
2023/01/10 03:51:06;;;;;;;;;1.00;1.00;;;;;7.90;63.95;101263.47;5077059;27;45606;-54
2023/01/10 03:53:33;;;;;;;;;2.33;2.00;;;;;7.97;63.44;101272.97;5075663;27;45498;-54
2023/01/10 03:55:59;;;;;;;;;1.67;1.67;;;;;8.00;63.97;101285.16;5077125;27;45502;-57
2023/01/10 03:58:27;;;;;;;;;3.75;2.50;;;;;8.00;64.00;101287.75;5077220;27;45369;-55
2023/01/10 04:00:52;;;;;;;;;2.75;2.75;;;;;7.94;63.78;101289.56;5075558;28;45605;-51
2023/01/10 04:03:18;;;;;;;;;3.00;2.00;;;;;7.94;64.47;101283.47;5075408;28;45436;-56
2023/01/10 04:05:43;;;;;;;;;6.25;6.25;;;;;7.88;64.06;101278.34;5076679;27;45429;-55
2023/01/10 04:08:08;;;;;;;;;4.00;3.00;;;;;7.96;63.81;101289.56;5076989;27;45672;-57
2023/01/10 04:10:34;;;;;;;;;3.00;3.00;;;;;7.97;64.03;101284.28;5075409;27;45533;-55
2023/01/10 04:13:00;;;;;;;;;3.50;2.75;;;;;7.99;63.66;101291.28;5076708;27;45456;-55
2023/01/10 04:15:26;;;;;;;;;3.00;3.00;;;;;7.96;64.41;101279.09;5076893;27;45437;-54
2023/01/10 04:17:51;;;;;;;;;2.25;2.25;;;;;7.97;63.82;101276.44;5076660;27;45434;-53
2023/01/10 04:20:17;;;;;;;;;1.00;1.00;;;;;7.96;64.18;101276.47;5076625;27;45916;-56
2023/01/10 04:22:44;;;;;;;;;1.67;1.33;;;;;7.96;64.36;101276.47;5076536;27;45300;-57
2023/01/10 04:25:09;;;;;;;;;2.00;2.00;;;;;7.94;64.76;101280.88;5076812;27;45399;-57
2023/01/10 04:27:34;;;;;;;;;3.50;3.50;;;;;7.92;64.01;101280.88;5076527;27;47721;-54
2023/01/10 04:30:00;;;;;;;;;2.00;1.25;;;;;7.83;64.92;101286.25;5076581;27;45501;-54
2023/01/10 04:32:25;;;;;;;;;3.00;2.25;;;;;7.81;64.02;101288.00;5076426;27;45405;-52
2023/01/10 04:34:52;;;;;;;;;3.75;2.00;;;;;7.77;64.62;101281.09;5062275;27;45352;-52
2023/01/10 04:37:18;;;;;;;;;2.50;2.50;;;;;7.77;64.92;101288.94;5076501;27;45628;-51
2023/01/10 04:39:43;;;;;;;;;2.00;2.00;;;;;7.74;65.04;101286.38;5075980;27;46098;-59
2023/01/10 04:42:08;;;;;;;;;2.00;2.00;;;;;7.78;65.04;101297.66;5075144;28;45459;-53
2023/01/10 04:44:34;;;;;;;;;3.25;2.00;;;;;7.78;65.29;101295.03;5076216;27;45409;-51
2023/01/10 04:46:59;;;;;;;;;2.00;2.00;;;;;7.75;65.02;101299.44;5076274;27;45501;-54
2023/01/10 04:49:24;;;;;;;;;2.25;2.25;;;;;7.73;64.59;101298.56;5076224;27;46263;-52
2023/01/10 04:51:50;;;;;;;;;4.75;3.50;;;;;7.75;65.12;101299.44;5076057;27;45543;-55
2023/01/10 04:54:19;;;;;;;;;2.33;2.33;;;;;7.75;65.52;101298.56;5076412;27;45518;-60
2023/01/10 04:56:45;;;;;;;;;3.25;3.25;;;;;7.72;65.46;101296.84;5076296;28;45323;-59
2023/01/10 04:59:10;;;;;;;;;5.33;2.00;;;;;7.78;64.83;101290.66;5075869;27;48051;-57
2023/01/10 05:01:37;;;;;;;;;3.00;2.75;;;;;7.77;65.20;101290.72;5076230;27;45449;-56
2023/01/10 05:04:04;;;;;;;;;5.00;2.00;;;;;7.77;65.10;101294.19;5074394;28;45598;-54
2023/01/10 05:06:29;;;;;;;;;6.00;4.00;;;;;7.75;65.74;101294.19;5075972;27;45634;-55
2023/01/10 05:08:55;;;;;;;;;3.75;2.00;;;;;7.79;64.76;101295.03;5075915;27;46003;-54
2023/01/10 05:11:20;;;;;;;;;3.25;2.00;;;;;7.75;65.56;101291.56;5074077;27;45563;-58
2023/01/10 05:13:45;;;;;;;;;3.00;1.75;;;;;7.77;65.40;101288.09;5076026;27;45473;-55
2023/01/10 05:16:11;;;;;;;;;2.75;2.75;;;;;7.81;65.48;101289.75;5076082;27;45659;-57
2023/01/10 05:18:36;;;;;;;;;3.00;3.00;;;;;7.80;65.25;101283.66;5075837;27;46296;-53
2023/01/10 05:21:04;;;;;;;;;7.50;1.50;;;;;7.84;64.75;101287.09;5075856;27;45346;-58
2023/01/10 05:23:30;;;;;;;;;2.25;2.25;;;;;7.84;65.43;101285.34;5075835;27;45336;-55
2023/01/10 05:25:55;;;;;;;;;5.25;3.75;;;;;7.84;64.95;101282.72;5075642;27;45366;-56
2023/01/10 05:28:21;;;;;;;;;2.50;2.00;;;;;7.82;65.43;101284.53;5075799;27;45663;-58
2023/01/10 05:30:46;;;;;;;;;3.33;2.00;;;;;7.83;65.43;101288.00;5075669;27;45473;-59
2023/01/10 05:33:11;;;;;;;;;3.00;3.00;;;;;7.84;65.28;101285.34;5073481;27;45481;-51
2023/01/10 05:35:37;;;;;;;;;3.33;1.00;;;;;7.82;65.05;101287.13;5063912;28;45460;-51
2023/01/10 05:38:02;;;;;;;;;4.50;3.00;;;;;7.82;65.21;101291.47;5075391;27;46265;-55
2023/01/10 05:40:28;;;;;;;;;3.50;3.50;;;;;7.77;65.36;101288.09;5074917;27;45517;-57
2023/01/10 05:42:53;;;;;;;;;2.67;2.33;;;;;7.72;65.88;101289.00;5075649;27;45392;-51
2023/01/10 05:45:18;;;;;;;;;4.00;3.00;;;;;7.67;65.58;101282.94;5075678;27;45535;-54
2023/01/10 05:47:44;;;;;;;;;2.50;2.50;;;;;7.70;65.79;101289.91;5075553;27;45413;-56
2023/01/10 05:50:10;;;;;;;;;1.25;1.25;;;;;7.72;65.66;101289.00;5075350;27;45512;-56
2023/01/10 05:52:35;;;;;;;;;5.00;4.00;;;;;7.74;65.86;101283.75;5075646;27;45531;-57
2023/01/10 05:55:00;;;;;;;;;3.00;3.00;;;;;7.70;65.96;101271.56;5075329;27;45376;-53
2023/01/10 05:57:26;;;;;;;;;2.50;1.00;;;;;7.73;65.55;101280.25;5075248;27;46146;-53
2023/01/10 05:59:51;;;;;;;;;8.25;5.50;;;;;7.72;66.41;101290.75;5075245;27;45395;-56
2023/01/10 06:02:16;;;;;;;;;3.25;2.25;;;;;7.72;66.36;101280.28;5074985;27;45469;-56
2023/01/10 06:04:42;;;;;;;;;2.50;2.50;;;;;7.67;66.13;101275.09;5075276;27;45448;-54
2023/01/10 06:07:08;;;;;;;;;4.00;3.00;;;;;7.73;65.78;101293.34;5074896;27;45450;-56
2023/01/10 06:09:33;;;;;;;;;4.50;4.00;;;;;7.72;65.93;101280.28;5074186;28;45413;-56
2023/01/10 06:11:58;;;;;;;;;1.00;1.00;;;;;7.72;66.24;101273.28;5078151;27;45471;-52
2023/01/10 06:14:24;;;;;;;;;4.25;3.00;;;;;7.70;66.54;101287.28;5078808;27;45335;-55
2023/01/10 06:16:49;;;;;;;;;2.50;2.50;;;;;7.73;65.69;101284.63;5078702;27;45389;-52
2023/01/10 06:19:14;;;;;;;;;4.00;3.00;;;;;7.70;65.96;101282.03;5078401;27;45394;-57
2023/01/10 06:21:40;;;;;;;;;3.75;3.00;;;;;7.73;66.33;101284.63;5078596;27;45476;-57
2023/01/10 06:24:05;;;;;;;;;4.25;3.50;;;;;7.75;66.09;101283.72;5078511;27;45612;-58
2023/01/10 06:26:31;;;;;;;;;6.00;3.50;;;;;7.74;65.92;101268.91;5078210;27;46142;-52
2023/01/10 06:28:58;;;;;;;;;2.25;2.25;;;;;7.71;65.96;101274.19;5078472;27;45465;-55
2023/01/10 06:31:24;;;;;;;;;5.50;5.50;;;;;7.73;66.16;101271.53;5078331;28;45444;-56
2023/01/10 06:33:49;;;;;;;;;5.25;3.00;;;;;7.77;66.33;101278.47;5070828;27;45407;-57
2023/01/10 06:36:15;;;;;;;;;3.00;3.00;;;;;7.81;65.91;101285.38;5071356;28;45499;-56
2023/01/10 06:38:40;;;;;;;;;6.00;4.00;;;;;7.83;66.13;101288.00;5077960;27;45366;-55
2023/01/10 06:41:11;;;;;;;;;2.00;2.00;;;;;7.80;66.31;101288.91;5077396;27;45380;-56
2023/01/10 06:43:45;;;;;;;;;3.00;3.00;;;;;7.81;66.43;101288.00;5076668;28;45507;-53
2023/01/10 06:46:15;;;;;;;;;4.25;4.25;;;;;7.79;66.23;101288.91;5077792;27;45381;-56
2023/01/10 06:48:42;;;;;;;;;3.00;3.00;;;;;7.76;65.97;101297.66;5077683;28;45615;-59
2023/01/10 06:51:08;;;;;;;;;3.50;3.00;;;;;7.78;66.12;101292.44;5077923;27;45448;-53
2023/01/10 06:53:33;;;;;;;;;3.50;3.50;;;;;7.77;66.53;101295.94;5077950;27;45346;-56
2023/01/10 06:55:58;;;;;;;;;5.25;3.50;;;;;7.67;66.27;101301.28;5075799;27;45377;-57
2023/01/10 06:58:24;;;;;;;;;5.25;5.25;;;;;7.66;66.75;101303.94;5075052;27;45787;-60
2023/01/10 07:00:50;;;;;;;;;5.50;3.25;;;;;7.56;66.89;101297.91;5075629;28;45514;-56
2023/01/10 07:03:15;;;;;;;;;5.50;3.75;;;;;7.57;66.97;101296.16;5075727;28;45643;-59
2023/01/10 07:05:41;;;;;;;;;1.75;1.75;;;;;7.58;66.90;101290.06;5077629;27;46424;-56
2023/01/10 07:08:07;;;;;;;;;4.25;3.25;;;;;7.55;66.73;101282.22;5076374;27;45587;-53
2023/01/10 07:10:32;;;;;;;;;7.50;5.00;;;;;7.53;67.19;101288.34;5076732;27;45540;-56
2023/01/10 07:12:58;;;;;;;;;7.50;4.25;;;;;7.52;67.15;101294.47;5077518;27;45616;-56
2023/01/10 07:15:24;;;;;;;;;5.00;4.00;;;;;7.51;67.28;101291.88;5077036;27;45923;-55
2023/01/10 07:17:49;;;;;;;;;6.50;4.75;;;;;7.47;67.61;101291.06;5076395;27;45516;-57
2023/01/10 07:20:15;;;;;;;;;3.00;2.00;;;;;7.46;67.50;101285.81;5072941;27;45452;-57
2023/01/10 07:22:40;;;;;;;;;3.25;3.25;;;;;7.44;67.34;101283.25;5077060;27;45474;-52
2023/01/10 07:25:06;;;;;;;;;7.50;4.00;;;;;7.45;67.53;101284.97;5076995;28;50116;-59
2023/01/10 07:27:32;;;;;;;;;5.50;4.50;;;;;7.45;67.13;101284.09;5077126;27;45407;-53
2023/01/10 07:29:57;;;;;;;;;5.00;2.75;;;;;7.40;67.57;101280.66;5077716;28;45482;-54
2023/01/10 07:32:23;;;;;;;;;8.25;5.00;;;;;7.39;67.10;101271.94;5077789;27;45430;-54
2023/01/10 07:34:49;;;;;;;;;2.75;2.75;;;;;7.41;67.91;101280.63;5062699;27;46416;-51
2023/01/10 07:37:14;;;;;;;;;5.50;4.00;;;;;7.42;67.49;101276.28;5076398;27;45377;-50
2023/01/10 07:39:41;;;;;;;;;6.75;4.00;;;;;7.45;67.47;101277.09;5077359;27;45586;-52
2023/01/10 07:42:08;;;;;;;;;9.50;4.75;;;;;7.43;67.15;101278.00;5077173;27;45597;-53
2023/01/10 07:44:33;;;;;;;;;6.50;4.00;;;;;7.41;66.89;101270.16;5074966;28;45608;-52
2023/01/10 07:46:58;;;;;;;;;7.00;4.00;;;;;7.41;67.57;101275.41;5075196;27;45528;-50
2023/01/10 07:49:23;;;;;;;;;7.00;4.50;;;;;7.43;67.67;101270.16;5074391;27;45506;-48
2023/01/10 07:51:49;;;;;;;;;8.75;5.50;;;;;7.44;67.75;101272.78;5070856;27;45626;-53
2023/01/10 07:54:14;;;;;;;;;7.25;5.75;;;;;7.45;67.60;101268.41;5073413;27;53479;-56
2023/01/10 07:56:39;;;;;;;;;8.00;5.00;;;;;7.45;67.88;101276.25;5074943;27;45534;-58
2023/01/10 07:59:05;;;;;;;;;6.75;5.00;;;;;7.40;67.78;101270.19;5071671;27;45577;-55
2023/01/10 08:01:30;;;;;;;;;9.00;7.50;;;;;7.39;67.46;101269.34;5076243;27;45587;-56
2023/01/10 08:03:57;;;;;;;;;10.00;9.50;;;;;7.39;67.98;101277.19;5074952;27;46005;-55
2023/01/10 08:06:22;;;;;;;;;12.50;10.50;;;;;7.38;67.28;101279.81;5075744;27;45466;-57
2023/01/10 08:08:47;;;;;;;;;8.00;7.75;;;;;7.42;68.08;101273.66;5076126;27;45386;-54
2023/01/10 08:11:12;;;;;;;;;4.75;4.75;;;;;7.44;68.08;101278.00;5076207;28;50156;-54
2023/01/10 08:13:38;;;;;;;;;4.00;4.00;;;;;7.43;67.57;101284.09;5076120;27;46324;-52
2023/01/10 08:16:05;;;;;;;;;4.50;4.50;;;;;7.43;67.71;101278.00;5075864;27;45444;-59
2023/01/10 08:18:30;;;;;;;;;10.00;8.75;;;;;7.46;67.94;101280.59;5076420;27;45419;-53
2023/01/10 08:20:56;;;;;;;;;9.25;5.50;;;;;7.46;68.39;101284.06;5075059;27;45478;-53
2023/01/10 08:23:22;;;;;;;;;7.75;7.00;;;;;7.47;67.95;101279.72;5075972;27;45513;-53
2023/01/10 08:25:48;;;;;;;;;8.00;7.50;;;;;7.50;68.17;101279.69;5075777;27;45506;-55
2023/01/10 08:28:13;;;;;;;;;7.00;6.00;;;;;7.54;67.64;101289.22;5076102;27;45478;-55
2023/01/10 08:30:39;;;;;;;;;7.00;6.00;;;;;7.50;67.78;101280.53;5075930;27;45449;-55
2023/01/10 08:33:06;;;;;;;;;6.25;5.25;;;;;7.51;68.03;101292.72;5071970;27;45536;-59
2023/01/10 08:35:39;;;;;;;;;7.75;7.75;;;;;7.44;67.78;101288.47;5066491;28;45462;-55
2023/01/10 08:38:05;;;;;;;;;11.50;8.75;;;;;7.40;68.73;101271.06;5075717;27;45536;-57
2023/01/10 08:40:30;;;;;;;;;10.00;7.75;;;;;7.46;68.47;101270.13;5075986;27;45505;-56
2023/01/10 08:43:04;;;;;;;;;9.00;9.00;;;;;7.47;68.30;101274.50;5075737;27;45466;-56
2023/01/10 08:45:30;;;;;;;;;8.00;8.00;;;;;7.48;68.28;101277.06;5075545;27;45446;-57
2023/01/10 08:47:55;;;;;;;;;9.50;8.00;;;;;7.48;68.54;101268.34;5075813;28;45405;-54
2023/01/10 08:50:21;;;;;;;;;10.00;6.50;;;;;7.47;68.52;101271.88;5075785;27;45436;-55
2023/01/10 08:52:47;;;;;;;;;11.50;7.75;;;;;7.52;68.27;101277.88;5075516;27;46223;-54
2023/01/10 08:55:12;;;;;;;;;12.25;8.00;;;;;7.53;68.63;101284.88;5075476;27;45514;-56
2023/01/10 08:57:37;;;;;;;;;11.50;8.50;;;;;7.55;68.35;101290.97;5075644;27;45883;-57
2023/01/10 09:00:04;;;;;;;;;12.50;11.25;;;;;7.59;68.71;101282.19;5075520;27;45652;-55
2023/01/10 09:02:29;;;;;;;;;9.75;9.75;;;;;7.62;69.30;101287.38;5071449;28;47501;-55
2023/01/10 09:04:55;;;;;;;;;12.75;11.50;;;;;7.64;69.07;101287.38;5075185;27;45387;-56
2023/01/10 09:07:20;;;;;;;;;7.00;7.00;;;;;7.62;69.37;101291.75;5075153;27;45381;-56
2023/01/10 09:09:46;;;;;;;;;8.00;6.25;;;;;7.58;69.20;101284.81;5075340;27;45476;-58
2023/01/10 09:14:55;;;;;;;;;10.00;7.50;;;;;7.59;69.11;101279.56;5075310;28;45482;-53
2023/01/10 09:17:21;;;;;;;;;8.25;8.00;;;;;7.64;69.98;101275.13;5075149;27;45823;-52
2023/01/10 09:19:46;;;;;;;;;10.25;8.00;;;;;7.65;69.88;101282.09;5074606;27;45398;-53
2023/01/10 09:22:12;;;;;;;;;7.00;5.25;;;;;7.70;70.06;101277.66;5075124;27;45443;-52
2023/01/10 09:24:38;;;;;;;;;7.75;7.25;;;;;7.70;69.87;101279.44;5074915;27;45489;-54
2023/01/10 09:27:04;;;;;;;;;7.75;7.75;;;;;7.68;70.74;101269.00;5075271;27;45468;-51
2023/01/10 09:29:29;;;;;;;;;8.50;8.00;;;;;7.71;70.50;101271.56;5073707;28;45375;-57
2023/01/10 09:31:54;;;;;;;;;12.50;9.50;;;;;7.70;70.37;101267.19;5072751;28;46811;-57
2023/01/10 09:34:21;;;;;;;;;8.00;8.00;;;;;7.72;70.29;101261.94;5063090;27;49142;-55
2023/01/10 09:36:47;;;;;;;;;21.25;21.25;;;;;7.73;70.95;101266.28;5072606;27;45472;-51
2023/01/10 09:39:12;;;;;;;;;8.00;8.00;;;;;7.75;70.88;101262.78;5075147;28;45523;-52
2023/01/10 09:41:56;;;;;;;;;14.00;11.75;;;;;7.77;70.56;101259.28;5074580;27;46015;-53
2023/01/10 09:44:59;;;;;;;;;8.00;6.75;;;;;7.74;70.81;101250.56;5074829;27;45441;-53
2023/01/10 09:47:32;;;;;;;;;11.50;8.25;;;;;7.74;71.26;101253.19;5078533;28;45401;-55
2023/01/10 09:50:20;;;;;;;;;8.00;8.00;;;;;7.77;71.75;101251.44;5078378;27;45530;-56
2023/01/10 09:53:08;;;;;;;;;11.25;7.50;;;;;7.78;71.77;101245.28;5066599;27;45490;-55
2023/01/10 09:55:37;;;;;;;;;8.50;7.00;;;;;7.81;72.15;101240.00;5078220;27;45524;-53
2023/01/10 09:58:15;;;;;;;;;11.25;9.00;;;;;7.80;71.57;101261.84;5078356;27;45531;-52
2023/01/10 10:00:55;;;;;;;;;11.00;9.00;;;;;7.80;72.23;101261.84;5076554;27;45515;-54
2023/01/10 10:03:30;;;;;;;;;9.50;8.50;;;;;7.80;72.17;101265.34;5076373;27;45450;-54
2023/01/10 10:05:56;;;;;;;;;7.75;6.75;;;;;7.84;72.31;101253.06;5077904;28;45405;-53
2023/01/10 10:08:21;;;;;;;;;8.00;8.00;;;;;7.82;72.65;101253.09;5078356;27;45460;-56
2023/01/10 10:10:59;;;;;;;;;7.25;7.00;;;;;7.87;72.90;101247.78;5078109;28;45461;-57
2023/01/10 10:13:46;;;;;;;;;9.50;8.25;;;;;7.87;72.27;101250.38;5078105;27;45547;-49
2023/01/10 10:16:35;;;;;;;;;12.00;9.25;;;;;7.86;72.84;101252.16;5078130;27;45517;-54
2023/01/10 10:19:04;;;;;;;;;10.50;8.50;;;;;7.91;72.30;101255.56;5077026;27;45412;-57
2023/01/10 10:21:57;;;;;;;;;9.00;7.75;;;;;7.91;72.83;101249.47;5077989;27;45449;-56
2023/01/10 10:24:47;;;;;;;;;11.50;7.75;;;;;7.88;73.41;101247.75;5077465;27;45539;-54
2023/01/10 10:27:33;;;;;;;;;8.50;7.50;;;;;7.91;73.46;101241.63;5076399;27;45528;-54
2023/01/10 10:30:27;;;;;;;;;9.75;9.00;;;;;7.90;73.20;101232.91;5077569;27;45409;-52
2023/01/10 10:33:17;;;;;;;;;9.25;8.00;;;;;7.91;73.04;101225.91;5067280;27;46976;-55
2023/01/10 10:36:32;;;;;;;;;7.75;7.75;;;;;7.88;73.17;101218.09;5077539;27;45564;-54
2023/01/10 10:39:01;;;;;;;;;7.00;6.75;;;;;7.83;73.85;101197.19;5072496;27;45503;-53
2023/01/10 10:41:39;;;;;;;;;5.25;5.25;;;;;7.88;73.46;101194.53;5077595;27;45405;-55
2023/01/10 10:44:27;;;;;;;;;8.00;4.50;;;;;7.91;73.86;101186.63;5077556;27;45385;-54
2023/01/10 10:46:55;;;;;;;;;7.25;3.75;;;;;7.92;73.21;101178.72;5073910;28;46159;-55
2023/01/10 10:49:43;;;;;;;;;7.50;6.50;;;;;7.93;73.77;101172.63;5077432;27;45433;-55
2023/01/10 10:52:25;;;;;;;;;6.75;4.00;;;;;7.91;74.45;101169.16;5077432;27;45511;-52
2023/01/10 10:54:52;;;;;;;;;9.50;8.25;;;;;7.91;74.55;101177.00;5077346;27;45464;-53
2023/01/10 10:57:22;;;;;;;;;6.25;6.25;;;;;7.90;74.59;101164.81;5076693;27;45421;-54
2023/01/10 10:59:48;;;;;;;;;5.00;5.00;;;;;7.90;74.72;101156.09;5077238;27;45576;-59
2023/01/10 11:02:42;;;;;;;;;7.25;5.50;;;;;7.91;74.70;101161.28;5075017;27;45544;-54
2023/01/10 11:05:17;;;;;;;;;8.75;8.75;;;;;7.90;75.00;101164.81;5077211;27;45413;-55
2023/01/10 11:07:43;;;;;;;;;7.00;4.00;;;;;7.94;74.63;101163.00;5076920;27;46170;-56
2023/01/10 11:10:48;;;;;;;;;8.50;6.50;;;;;7.91;74.65;101150.81;5077055;27;45556;-54
2023/01/10 11:13:31;;;;;;;;;8.75;7.25;;;;;7.92;75.36;101142.06;5074835;27;45617;-54
2023/01/10 11:15:56;;;;;;;;;12.75;9.75;;;;;7.92;75.11;101149.06;5076951;27;45604;-55
2023/01/10 11:18:27;;;;;;;;;8.75;7.25;;;;;7.88;75.21;101129.06;5076041;27;45471;-55
2023/01/10 11:20:57;;;;;;;;;5.25;5.25;;;;;7.95;74.40;101125.44;5076957;27;45373;-52
2023/01/10 11:23:49;;;;;;;;;7.00;6.75;;;;;7.96;75.40;101120.19;5076962;27;45462;-58
2023/01/10 11:26:24;;;;;;;;;9.25;7.00;;;;;7.97;75.15;101115.81;5076720;27;45450;-53
2023/01/10 11:29:07;;;;;;;;;6.75;5.50;;;;;7.96;76.17;101108.84;5076531;27;45368;-54
2023/01/10 11:31:35;;;;;;;;;4.75;4.75;;;;;8.00;75.62;101110.50;5066180;27;45548;-56
2023/01/10 11:34:04;;;;;;;;;8.00;5.25;;;;;7.99;75.98;101098.31;5070282;27;45383;-57
2023/01/10 11:37:00;;;;;;;;;7.00;6.25;;;;;8.02;75.76;101103.50;5072663;28;45484;-58
2023/01/10 11:39:28;;;;;;;;;7.25;6.75;;;;;8.08;76.09;101092.06;5076514;27;45514;-59
2023/01/10 11:41:54;;;;;;;;;6.25;6.25;;;;;8.08;76.18;101079.81;5076176;27;45451;-57
2023/01/10 11:44:28;;;;;;;;;7.00;4.00;;;;;8.07;76.25;101066.75;5075393;27;45742;-60
2023/01/10 11:46:57;;;;;;;;;8.00;4.00;;;;;8.12;76.14;101064.91;5076039;27;45485;-57
2023/01/10 11:49:42;;;;;;;;;6.50;6.00;;;;;8.10;76.85;101070.19;5075554;27;46168;-59
2023/01/10 11:52:22;;;;;;;;;7.50;7.50;;;;;8.12;76.44;101064.91;5075816;27;45508;-56
2023/01/10 11:54:48;;;;;;;;;9.25;7.50;;;;;8.13;76.27;101064.88;5077461;27;45499;-52